createdAt,value
2023-08-17T00:02:14.916Z,7.60
2023-08-17T00:04:45.322Z,7.47
2023-08-17T00:07:16.312Z,7.10
2023-08-17T00:09:48.126Z,7.60
2023-08-17T00:12:18.373Z,7.37
2023-08-17T00:14:52.759Z,6.80
2023-08-17T00:17:23.414Z,5.60
2023-08-17T00:19:53.958Z,6.10
2023-08-17T00:22:24.708Z,6.60
2023-08-17T00:24:55.736Z,6.00
2023-08-17T00:27:27.059Z,6.30
2023-08-17T00:29:57.624Z,6.10
2023-08-17T00:32:31.576Z,6.67
2023-08-17T00:35:03.196Z,6.20
2023-08-17T00:37:33.711Z,6.20
2023-08-17T00:40:07.571Z,5.90
2023-08-17T00:42:38.210Z,5.40
2023-08-17T00:45:09.077Z,3.90
2023-08-17T00:47:39.883Z,3.93
2023-08-17T00:50:11.066Z,3.40
2023-08-17T00:52:42.151Z,3.33
2023-08-17T00:55:12.874Z,2.63
2023-08-17T00:57:47.229Z,2.63
2023-08-17T01:00:19.966Z,1.90
2023-08-17T01:02:48.313Z,2.60
2023-08-17T01:05:19.712Z,3.20
2023-08-17T01:07:50.609Z,2.00
2023-08-17T01:10:22.064Z,2.50
2023-08-17T01:12:58.500Z,2.20
2023-08-17T01:15:38.925Z,2.27
2023-08-17T01:18:33.219Z,2.57
2023-08-17T01:21:07.197Z,2.07
2023-08-17T01:23:36.453Z,1.20
2023-08-17T01:26:02.652Z,1.70
2023-08-17T01:28:37.496Z,1.50
2023-08-17T01:31:12.246Z,1.37
2023-08-17T01:33:45.068Z,1.30
2023-08-17T01:36:22.869Z,1.40
2023-08-17T01:38:55.999Z,1.40
2023-08-17T01:41:23.567Z,1.20
2023-08-17T01:44:00.091Z,1.37
2023-08-17T01:46:33.421Z,1.50
2023-08-17T01:48:59.759Z,1.60
2023-08-17T01:51:25.984Z,1.63
2023-08-17T01:53:57.612Z,2.07
2023-08-17T01:56:26.528Z,2.07
2023-08-17T01:58:52.719Z,1.83
2023-08-17T02:01:18.910Z,1.83
2023-08-17T02:03:50.295Z,2.43
2023-08-17T02:06:16.526Z,2.57
2023-08-17T02:08:44.873Z,1.90
2023-08-17T02:11:15.928Z,2.13
2023-08-17T02:13:46.985Z,2.70
2023-08-17T02:16:17.819Z,1.70
2023-08-17T02:18:49.153Z,1.87
2023-08-17T02:21:23.490Z,2.23
2023-08-17T02:23:55.110Z,1.80
2023-08-17T02:26:27.047Z,2.17
2023-08-17T02:29:03.364Z,1.77
2023-08-17T02:31:35.144Z,2.27
2023-08-17T02:34:06.687Z,2.10
2023-08-17T02:36:43.213Z,2.20
2023-08-17T02:39:14.754Z,2.37
2023-08-17T02:41:41.255Z,2.30
2023-08-17T02:44:07.415Z,2.03
2023-08-17T02:46:41.687Z,2.33
2023-08-17T02:49:13.384Z,2.03
2023-08-17T02:51:45.671Z,1.80
2023-08-17T02:54:21.477Z,2.30
2023-08-17T02:56:53.444Z,1.83
2023-08-17T02:59:19.654Z,2.00
2023-08-17T03:01:46.021Z,2.07
2023-08-17T03:04:17.831Z,1.70
2023-08-17T03:06:49.412Z,1.80
2023-08-17T03:09:20.681Z,2.60
2023-08-17T03:11:56.418Z,2.27
2023-08-17T03:14:28.398Z,2.03
2023-08-17T03:16:54.559Z,2.10
2023-08-17T03:19:26.138Z,1.70
2023-08-17T03:21:57.937Z,2.37
2023-08-17T03:24:29.619Z,2.00
2023-08-17T03:27:01.342Z,1.80
2023-08-17T03:29:33.124Z,2.00
2023-08-17T03:32:05.570Z,1.83
2023-08-17T03:34:37.765Z,2.10
2023-08-17T03:37:10.993Z,2.53
2023-08-17T03:39:42.350Z,1.90
2023-08-17T03:42:14.354Z,2.23
2023-08-17T03:44:51.128Z,1.80
2023-08-17T03:47:23.076Z,1.80
2023-08-17T03:49:55.163Z,1.70
2023-08-17T03:52:31.604Z,2.30
2023-08-17T03:55:03.615Z,1.87
2023-08-17T03:57:30.693Z,2.13
2023-08-17T04:00:06.514Z,2.63
2023-08-17T04:02:38.453Z,2.00
2023-08-17T04:05:10.590Z,2.53
2023-08-17T04:07:42.305Z,2.23
2023-08-17T04:10:14.434Z,2.37
2023-08-17T04:12:45.932Z,2.00
2023-08-17T04:15:12.118Z,3.53
2023-08-17T04:17:48.737Z,2.70
2023-08-17T04:20:20.179Z,2.20
2023-08-17T04:22:46.368Z,2.30
2023-08-17T04:25:13.581Z,1.93
2023-08-17T04:27:45.329Z,4.23
2023-08-17T04:30:16.392Z,1.90
2023-08-17T04:32:42.613Z,1.70
2023-08-17T04:35:09.140Z,1.57
2023-08-17T04:37:40.755Z,2.30
2023-08-17T04:40:07.745Z,2.60
2023-08-17T04:42:33.887Z,2.77
2023-08-17T04:45:00.002Z,3.30
2023-08-17T04:47:33.173Z,3.60
2023-08-17T04:50:05.463Z,5.00
2023-08-17T04:52:35.692Z,5.80
2023-08-17T04:55:10.456Z,5.13
2023-08-17T04:57:41.810Z,8.30
2023-08-17T05:00:14.176Z,6.90
2023-08-17T05:02:43.891Z,7.47
2023-08-17T05:05:15.766Z,7.80
2023-08-17T05:07:48.207Z,8.00
2023-08-17T05:10:19.011Z,11.77
2023-08-17T05:12:52.406Z,12.13
2023-08-17T05:15:22.814Z,12.27
2023-08-17T05:17:53.599Z,13.93
2023-08-17T05:20:26.330Z,10.20
2023-08-17T05:22:57.624Z,12.10
2023-08-17T05:25:29.893Z,11.20
2023-08-17T05:28:00.449Z,11.00
2023-08-17T05:30:31.722Z,11.70
2023-08-17T05:33:04.621Z,10.90
2023-08-17T05:35:37.413Z,13.40
2023-08-17T05:38:10.258Z,12.23
2023-08-17T05:40:42.593Z,13.17
2023-08-17T05:43:14.098Z,13.00
2023-08-17T05:45:51.164Z,13.90
2023-08-17T05:48:23.143Z,13.73
2023-08-17T05:50:58.072Z,12.60
2023-08-17T05:53:31.912Z,12.50
2023-08-17T05:56:03.824Z,14.20
2023-08-17T05:58:35.031Z,12.17
2023-08-17T06:01:08.952Z,13.20
2023-08-17T06:03:39.644Z,12.07
2023-08-17T06:06:12.592Z,10.50
2023-08-17T06:08:46.511Z,10.07
2023-08-17T06:11:19.690Z,10.37
2023-08-17T06:13:51.667Z,10.07
2023-08-17T06:16:23.193Z,10.53
2023-08-17T06:18:54.105Z,12.53
2023-08-17T06:21:25.707Z,13.33
2023-08-17T06:23:56.618Z,12.60
2023-08-17T06:26:32.182Z,11.13
2023-08-17T06:29:04.431Z,11.77
2023-08-17T06:31:34.656Z,11.87
2023-08-17T06:34:07.404Z,14.00
2023-08-17T06:36:40.152Z,12.50
2023-08-17T06:39:10.881Z,14.57
2023-08-17T06:41:44.276Z,12.23
2023-08-17T06:44:15.732Z,14.53
2023-08-17T06:46:47.830Z,12.80
2023-08-17T06:49:19.044Z,14.40
2023-08-17T06:51:50.118Z,14.30
2023-08-17T06:54:20.823Z,13.50
2023-08-17T06:56:51.740Z,11.90
2023-08-17T06:59:27.672Z,13.73
2023-08-17T07:01:58.829Z,13.80
2023-08-17T07:04:30.161Z,11.13
2023-08-17T07:07:03.663Z,12.60
2023-08-17T07:09:34.845Z,14.50
2023-08-17T07:12:05.939Z,10.67
2023-08-17T07:14:37.666Z,13.30
2023-08-17T07:17:07.700Z,12.17
2023-08-17T07:20:00.021Z,11.90
2023-08-17T07:22:24.879Z,11.53
2023-08-17T07:24:54.727Z,12.80
2023-08-17T07:27:20.944Z,13.27
2023-08-17T07:29:48.092Z,11.00
2023-08-17T07:32:19.481Z,10.60
2023-08-17T07:34:50.256Z,9.50
2023-08-17T07:37:20.959Z,11.80
2023-08-17T07:39:52.102Z,11.40
2023-08-17T07:42:27.472Z,10.30
2023-08-17T07:44:57.477Z,10.70
2023-08-17T07:47:30.117Z,8.97
2023-08-17T07:49:58.238Z,8.80
2023-08-17T07:52:24.410Z,9.60
2023-08-17T07:54:50.677Z,9.43
2023-08-17T07:57:17.054Z,8.20
2023-08-17T07:59:43.202Z,7.83
2023-08-17T08:02:09.415Z,7.90
2023-08-17T08:04:35.582Z,8.83
2023-08-17T08:07:01.781Z,8.63
2023-08-17T08:09:28.013Z,7.20
2023-08-17T08:11:54.211Z,6.90
2023-08-17T08:14:20.484Z,5.77
2023-08-17T08:16:47.670Z,5.80
2023-08-17T08:19:13.862Z,5.97
2023-08-17T08:21:40.093Z,6.70
2023-08-17T08:24:13.993Z,6.73
2023-08-17T08:26:44.537Z,6.50
2023-08-17T08:29:10.730Z,6.37
2023-08-17T08:31:36.991Z,6.33
2023-08-17T08:34:03.347Z,6.47
2023-08-17T08:36:29.508Z,5.40
2023-08-17T08:38:55.733Z,4.90
2023-08-17T08:41:22.044Z,6.50
2023-08-17T08:43:48.272Z,7.00
2023-08-17T08:46:17.490Z,6.30
2023-08-17T08:48:45.179Z,6.77
2023-08-17T08:51:13.161Z,5.27
2023-08-17T08:53:45.171Z,6.30
2023-08-17T08:56:13.039Z,5.40
2023-08-17T08:58:40.830Z,5.97
2023-08-17T09:01:09.098Z,5.47
2023-08-17T09:03:36.016Z,7.27
2023-08-17T09:06:03.644Z,7.40
2023-08-17T09:08:30.853Z,7.20
2023-08-17T09:10:57.517Z,5.90
2023-08-17T09:13:23.955Z,4.60
2023-08-17T09:15:50.334Z,5.80
2023-08-17T09:18:18.239Z,5.60
2023-08-17T09:20:48.353Z,5.87
2023-08-17T09:23:17.668Z,4.43
2023-08-17T09:25:45.249Z,4.73
2023-08-17T09:28:13.993Z,5.43
2023-08-17T09:30:53.708Z,5.33
2023-08-17T09:33:24.560Z,6.27
2023-08-17T09:35:52.122Z,5.50
2023-08-17T09:38:19.022Z,5.00
2023-08-17T09:40:45.996Z,4.80
2023-08-17T09:43:13.478Z,4.90
2023-08-17T09:45:39.939Z,4.30
2023-08-17T09:48:09.184Z,4.57
2023-08-17T09:50:39.078Z,5.33
2023-08-17T09:53:05.634Z,4.37
2023-08-17T09:55:34.932Z,4.37
2023-08-17T09:58:01.381Z,4.70
2023-08-17T10:00:27.949Z,6.50
2023-08-17T10:02:54.208Z,4.80
2023-08-17T10:05:24.164Z,4.40
2023-08-17T10:07:54.720Z,4.53
2023-08-17T10:10:31.169Z,5.53
2023-08-17T10:13:10.090Z,3.63
2023-08-17T10:15:57.801Z,4.27
2023-08-17T10:18:29.988Z,4.77
2023-08-17T10:21:06.489Z,4.77
2023-08-17T10:23:33.052Z,3.40
2023-08-17T10:26:02.944Z,3.30
2023-08-17T10:28:32.326Z,3.90
2023-08-17T10:30:58.815Z,4.10
2023-08-17T10:33:25.617Z,4.00
2023-08-17T10:35:52.405Z,3.57
2023-08-17T10:38:18.791Z,3.70
2023-08-17T10:40:45.908Z,3.20
2023-08-17T10:43:12.989Z,3.60
2023-08-17T10:45:39.778Z,3.23
2023-08-17T10:48:05.972Z,3.70
2023-08-17T10:50:33.405Z,3.77
2023-08-17T10:53:09.125Z,3.00
2023-08-17T10:55:40.313Z,2.80
2023-08-17T10:58:15.175Z,2.73
2023-08-17T11:00:42.965Z,2.50
2023-08-17T11:03:11.210Z,2.57
2023-08-17T11:05:50.230Z,2.63
2023-08-17T11:08:31.930Z,2.10
2023-08-17T11:10:59.258Z,2.33
2023-08-17T11:13:28.570Z,2.33
2023-08-17T11:15:54.789Z,2.27
2023-08-17T11:18:20.976Z,2.03
2023-08-17T11:20:48.984Z,2.20
2023-08-17T11:23:15.239Z,1.70
2023-08-17T11:25:42.293Z,1.87
2023-08-17T11:28:09.287Z,2.00
2023-08-17T11:30:38.229Z,1.90
2023-08-17T11:33:05.177Z,2.17
2023-08-17T11:35:31.601Z,1.77
2023-08-17T11:37:57.788Z,2.27
2023-08-17T11:40:25.928Z,2.00
2023-08-17T11:42:52.438Z,1.90
2023-08-17T11:45:18.874Z,1.87
2023-08-17T11:47:45.064Z,1.97
2023-08-17T11:50:20.557Z,1.80
2023-08-17T11:52:48.178Z,1.90
2023-08-17T11:55:18.181Z,1.53
2023-08-17T11:57:44.358Z,2.13
2023-08-17T12:00:11.148Z,1.90
2023-08-17T12:02:43.874Z,2.10
2023-08-17T12:05:10.854Z,2.07
2023-08-17T12:07:37.121Z,1.60
2023-08-17T12:10:04.889Z,1.90
2023-08-17T12:12:31.513Z,1.40
2023-08-17T12:14:58.683Z,1.73
2023-08-17T12:17:25.204Z,2.00
2023-08-17T12:19:55.333Z,2.17
2023-08-17T12:22:24.885Z,1.87
2023-08-17T12:24:52.434Z,1.70
2023-08-17T12:27:19.200Z,2.10
2023-08-17T12:29:51.981Z,1.70
2023-08-17T12:32:19.492Z,1.70
2023-08-17T12:34:46.435Z,2.03
2023-08-17T12:37:13.287Z,2.20
2023-08-17T12:39:39.506Z,1.90
2023-08-17T12:42:05.925Z,1.80
2023-08-17T12:44:32.396Z,1.80
2023-08-17T12:46:58.727Z,2.13
2023-08-17T12:49:24.902Z,2.20
2023-08-17T12:51:51.387Z,2.20
2023-08-17T12:54:17.589Z,2.33
2023-08-17T12:56:44.750Z,1.70
2023-08-17T12:59:11.182Z,1.77
2023-08-17T13:01:38.157Z,2.07
2023-08-17T13:04:04.747Z,1.90
2023-08-17T13:06:43.794Z,1.80
2023-08-17T13:09:16.335Z,2.10
2023-08-17T13:11:42.538Z,1.70
2023-08-17T13:14:08.737Z,1.53
2023-08-17T13:16:34.936Z,2.00
2023-08-17T13:19:01.142Z,1.57
2023-08-17T13:21:27.326Z,1.60
2023-08-17T13:23:53.439Z,2.30
2023-08-17T13:26:21.930Z,1.60
2023-08-17T13:28:48.562Z,1.97
2023-08-17T13:31:23.689Z,2.07
2023-08-17T13:33:51.753Z,2.23
2023-08-17T13:36:18.335Z,1.70
2023-08-17T13:38:45.827Z,2.00
2023-08-17T13:41:12.511Z,1.83
2023-08-17T13:43:38.736Z,2.00
2023-08-17T13:46:05.564Z,1.70
2023-08-17T13:48:31.902Z,1.90
2023-08-17T13:50:58.086Z,2.00
2023-08-17T13:53:24.259Z,1.90
2023-08-17T13:55:50.530Z,4.90
2023-08-17T13:58:16.810Z,2.00
2023-08-17T14:00:43.004Z,2.10
2023-08-17T14:03:09.268Z,1.97
2023-08-17T14:05:35.473Z,1.90
2023-08-17T14:08:01.611Z,1.60
2023-08-17T14:10:38.410Z,1.80
2023-08-17T14:13:05.812Z,2.03
2023-08-17T14:15:32.117Z,2.00
2023-08-17T14:17:58.314Z,2.03
2023-08-17T14:20:24.776Z,1.70
2023-08-17T14:22:51.066Z,1.97
2023-08-17T14:25:17.246Z,2.20
2023-08-17T14:27:43.432Z,2.30
2023-08-17T14:30:09.878Z,2.40
2023-08-17T14:32:36.257Z,1.80
2023-08-17T14:35:02.578Z,2.00
2023-08-17T14:37:28.970Z,1.87
2023-08-17T14:39:55.355Z,1.70
2023-08-17T14:42:21.598Z,2.30
2023-08-17T14:44:47.781Z,2.63
2023-08-17T14:47:15.077Z,2.03
2023-08-17T14:49:47.000Z,2.10
2023-08-17T14:52:13.226Z,1.93
2023-08-17T14:54:43.382Z,2.00
2023-08-17T14:57:09.820Z,1.80
2023-08-17T14:59:37.338Z,1.63
2023-08-17T15:02:03.645Z,1.30
2023-08-17T15:04:29.809Z,1.70
2023-08-17T15:06:55.965Z,1.87
2023-08-17T15:09:22.124Z,1.50
2023-08-17T15:11:50.572Z,1.60
2023-08-17T15:14:17.136Z,1.60
2023-08-17T15:16:43.277Z,1.80
2023-08-17T15:19:09.506Z,1.50
2023-08-17T15:21:35.628Z,1.60
2023-08-17T15:24:03.270Z,2.10
2023-08-17T15:26:29.713Z,1.93
2023-08-17T15:28:55.947Z,2.07
2023-08-17T15:31:22.271Z,1.80
2023-08-17T15:33:48.428Z,1.80
2023-08-17T15:36:14.689Z,1.87
2023-08-17T15:38:40.954Z,1.80
2023-08-17T15:41:07.209Z,1.90
2023-08-17T15:43:33.359Z,2.00
2023-08-17T15:45:59.720Z,1.57
2023-08-17T15:48:25.948Z,1.40
2023-08-17T15:50:52.480Z,1.67
2023-08-17T15:53:18.661Z,1.80
2023-08-17T15:55:45.170Z,1.30
2023-08-17T15:58:12.091Z,1.80
2023-08-17T16:00:38.312Z,1.60
2023-08-17T16:03:05.093Z,1.90
2023-08-17T16:05:31.629Z,1.80
2023-08-17T16:07:58.704Z,1.93
2023-08-17T16:10:24.883Z,1.40
2023-08-17T16:12:51.105Z,1.90
2023-08-17T16:15:17.447Z,1.60
2023-08-17T16:17:43.764Z,1.77
2023-08-17T16:20:10.851Z,2.70
2023-08-17T16:22:37.103Z,8.60
2023-08-17T16:25:03.613Z,1.80
2023-08-17T16:27:29.976Z,1.70
2023-08-17T16:29:56.490Z,1.20
2023-08-17T16:32:22.647Z,1.30
2023-08-17T16:34:49.841Z,1.40
2023-08-17T16:37:16.617Z,1.37
2023-08-17T16:39:42.814Z,1.77
2023-08-17T16:42:09.118Z,1.77
2023-08-17T16:44:35.309Z,1.70
2023-08-17T16:47:01.495Z,1.87
2023-08-17T16:49:30.721Z,2.20
2023-08-17T16:51:58.771Z,1.80
2023-08-17T16:54:25.107Z,2.00
2023-08-17T16:56:53.868Z,2.40
2023-08-17T16:59:20.291Z,2.30
2023-08-17T17:01:46.500Z,2.70
2023-08-17T17:04:12.726Z,2.20
2023-08-17T17:06:39.004Z,2.40
2023-08-17T17:09:05.451Z,2.60
2023-08-17T17:11:31.840Z,3.50
2023-08-17T17:13:58.900Z,3.17
2023-08-17T17:16:25.203Z,3.50
2023-08-17T17:18:51.563Z,3.20
2023-08-17T17:21:17.830Z,3.70
2023-08-17T17:23:44.652Z,3.40
2023-08-17T17:26:10.898Z,3.23
2023-08-17T17:28:37.211Z,3.00
2023-08-17T17:31:05.134Z,3.10
2023-08-17T17:33:31.458Z,3.40
2023-08-17T17:35:58.804Z,2.83
2023-08-17T17:38:25.024Z,2.83
2023-08-17T17:40:51.203Z,3.43
2023-08-17T17:43:17.409Z,2.83
2023-08-17T17:45:43.625Z,2.90
2023-08-17T17:48:09.892Z,3.30
2023-08-17T17:50:36.189Z,3.40
2023-08-17T17:53:02.424Z,3.13
2023-08-17T17:55:28.630Z,3.50
2023-08-17T17:57:56.324Z,3.90
2023-08-17T18:00:22.550Z,3.63
2023-08-17T18:02:48.847Z,3.87
2023-08-17T18:05:15.082Z,3.80
2023-08-17T18:07:41.486Z,3.97
2023-08-17T18:10:08.135Z,3.50
2023-08-17T18:12:34.678Z,3.90
2023-08-17T18:15:01.004Z,5.13
2023-08-17T18:17:27.573Z,3.90
2023-08-17T18:19:54.092Z,4.47
2023-08-17T18:22:36.596Z,4.63
2023-08-17T18:25:03.070Z,4.87
2023-08-17T18:27:30.786Z,8.17
2023-08-17T18:29:57.125Z,15.30
2023-08-17T18:32:23.297Z,13.13
2023-08-17T18:34:49.485Z,9.80
2023-08-17T18:37:15.615Z,11.30
2023-08-17T18:39:41.977Z,5.13
2023-08-17T18:42:08.151Z,4.93
2023-08-17T18:44:34.452Z,5.20
2023-08-17T18:47:02.344Z,5.73
2023-08-17T18:49:28.906Z,5.40
2023-08-17T18:51:55.177Z,5.93
2023-08-17T18:54:21.362Z,6.30
2023-08-17T18:56:47.565Z,5.40
2023-08-17T18:59:13.778Z,4.60
2023-08-17T19:01:39.986Z,5.57
2023-08-17T19:04:06.218Z,6.23
2023-08-17T19:06:32.410Z,5.40
2023-08-17T19:08:58.715Z,6.83
2023-08-17T19:11:24.924Z,7.10
2023-08-17T19:13:51.175Z,6.10
2023-08-17T19:16:17.472Z,5.67
2023-08-17T19:18:43.723Z,6.23
2023-08-17T19:21:10.033Z,5.93
2023-08-17T19:23:36.320Z,6.80
2023-08-17T19:26:02.663Z,5.77
2023-08-17T19:28:28.894Z,6.60
2023-08-17T19:30:55.086Z,6.87
2023-08-17T19:33:21.250Z,5.77
2023-08-17T19:35:47.504Z,6.77
2023-08-17T19:38:14.101Z,6.60
2023-08-17T19:40:41.439Z,5.87
2023-08-17T19:43:07.566Z,5.90
2023-08-17T19:45:34.639Z,6.57
2023-08-17T19:48:00.899Z,6.10
2023-08-17T19:50:27.117Z,7.00
2023-08-17T19:52:53.311Z,5.70
2023-08-17T19:55:19.505Z,5.53
2023-08-17T19:57:45.734Z,6.77
2023-08-17T20:00:12.546Z,6.70
2023-08-17T20:02:39.205Z,10.53
2023-08-17T20:05:05.924Z,13.53
2023-08-17T20:07:33.054Z,17.30
2023-08-17T20:09:59.731Z,6.93
2023-08-17T20:12:26.301Z,8.40
2023-08-17T20:14:52.516Z,8.03
2023-08-17T20:17:18.798Z,6.80
2023-08-17T20:19:45.044Z,6.90
2023-08-17T20:22:11.526Z,6.30
2023-08-17T20:24:37.764Z,6.30
2023-08-17T20:27:05.685Z,5.87
2023-08-17T20:29:32.232Z,6.60
2023-08-17T20:31:59.631Z,8.13
2023-08-17T20:34:26.237Z,7.37
2023-08-17T20:36:52.455Z,8.37
2023-08-17T20:39:19.013Z,6.47
2023-08-17T20:41:45.763Z,7.13
2023-08-17T20:44:13.511Z,8.53
2023-08-17T20:46:39.876Z,7.47
2023-08-17T20:49:06.082Z,8.10
2023-08-17T20:51:32.311Z,6.93
2023-08-17T20:53:58.504Z,8.63
2023-08-17T20:56:27.232Z,8.80
2023-08-17T20:58:53.397Z,7.23
2023-08-17T21:01:19.925Z,7.70
2023-08-17T21:03:49.414Z,7.67
2023-08-17T21:06:15.655Z,9.40
2023-08-17T21:08:42.535Z,9.40
2023-08-17T21:11:08.693Z,8.73
2023-08-17T21:13:35.654Z,9.80
2023-08-17T21:16:06.970Z,9.27
2023-08-17T21:18:33.418Z,9.03
2023-08-17T21:21:00.119Z,9.93
2023-08-17T21:23:26.772Z,7.97
2023-08-17T21:25:52.949Z,9.77
2023-08-17T21:28:19.352Z,9.80
2023-08-17T21:30:45.659Z,8.90
2023-08-17T21:33:11.993Z,9.90
2023-08-17T21:35:38.213Z,9.40
2023-08-17T21:38:04.815Z,8.50
2023-08-17T21:40:31.103Z,9.30
2023-08-17T21:42:57.376Z,9.73
2023-08-17T21:45:23.566Z,9.87
2023-08-17T21:47:51.282Z,10.57
2023-08-17T21:50:18.280Z,9.20
2023-08-17T21:52:44.532Z,8.73
2023-08-17T21:55:10.933Z,9.30
2023-08-17T21:57:38.225Z,8.50
2023-08-17T22:00:05.117Z,8.23
2023-08-17T22:02:31.332Z,10.33
2023-08-17T22:04:57.591Z,8.60
2023-08-17T22:07:23.887Z,9.80
2023-08-17T22:09:50.069Z,10.50
2023-08-17T22:12:16.271Z,9.53
2023-08-17T22:14:42.434Z,8.20
2023-08-17T22:17:08.600Z,9.13
2023-08-17T22:19:35.487Z,9.20
2023-08-17T22:22:01.715Z,8.70
2023-08-17T22:24:34.852Z,9.97
2023-08-17T22:27:08.126Z,10.40
2023-08-17T22:29:34.314Z,9.80
2023-08-17T22:32:00.511Z,9.63
2023-08-17T22:34:26.796Z,9.20
2023-08-17T22:36:52.990Z,9.20
2023-08-17T22:39:19.129Z,12.03
2023-08-17T22:41:45.715Z,12.67
2023-08-17T22:44:11.934Z,13.27
2023-08-17T22:46:38.155Z,11.83
2023-08-17T22:49:04.339Z,10.40
2023-08-17T22:51:30.465Z,11.80
2023-08-17T22:53:57.200Z,11.67
2023-08-17T22:56:23.444Z,10.23
2023-08-17T22:58:49.763Z,11.90
2023-08-17T23:01:16.347Z,10.80
2023-08-17T23:03:42.512Z,12.67
2023-08-17T23:06:08.727Z,14.40
2023-08-17T23:08:35.994Z,12.27
2023-08-17T23:11:02.388Z,12.27
2023-08-17T23:13:28.928Z,11.80
2023-08-17T23:15:55.133Z,13.33
2023-08-17T23:18:21.572Z,13.97
2023-08-17T23:20:48.036Z,12.43
2023-08-17T23:23:14.296Z,13.83
2023-08-17T23:25:40.561Z,12.90
2023-08-17T23:28:06.910Z,14.53
2023-08-17T23:30:36.755Z,14.30
2023-08-17T23:33:03.344Z,13.60
2023-08-17T23:35:29.488Z,15.70
2023-08-17T23:37:56.021Z,14.60
2023-08-17T23:40:22.218Z,14.23
2023-08-17T23:42:48.438Z,15.00
2023-08-17T23:45:14.878Z,14.20
2023-08-17T23:47:41.155Z,14.50
2023-08-17T23:50:07.649Z,11.13
2023-08-17T23:52:33.866Z,12.40
2023-08-17T23:55:00.071Z,11.90
2023-08-17T23:57:26.795Z,10.60
2023-08-17T23:59:53.166Z,12.17
